Time;durP1;ratioP1;P1;durP2;ratioP2;P2;SDS_P1;SDS_P2;PMS_P1;PMS_P2;Temp;Humidity;BMP_temperature;BMP_pressure;BME280_temperature;BME280_humidity;BME280_pressure;Samples;Min_cycle;Max_cycle;Signal;HPM_P1;HPM_P2
2021/07/30 00:02:05;;;;;;;6.07;5.43;;;15.80;99.90;;;;;;5115335;28;20194;-83
2021/07/30 00:04:30;;;;;;;9.63;5.30;;;15.80;99.90;;;;;;5116846;28;20199;-85
2021/07/30 00:06:56;;;;;;;6.10;5.33;;;15.90;99.90;;;;;;5105690;28;20655;-85
2021/07/30 00:09:21;;;;;;;8.00;4.90;;;16.10;99.90;;;;;;5086653;28;20190;-85
2021/07/30 00:11:47;;;;;;;5.73;5.17;;;16.00;99.90;;;;;;5102011;28;20248;-85
2021/07/30 00:14:12;;;;;;;5.80;5.00;;;16.20;99.90;;;;;;5101885;28;20201;-85
2021/07/30 00:16:39;;;;;;;6.70;5.20;;;16.40;99.90;;;;;;5101960;28;20235;-85
2021/07/30 00:19:05;;;;;;;6.33;5.73;;;16.40;99.90;;;;;;5083521;28;20147;-85
2021/07/30 00:21:31;;;;;;;4.93;4.53;;;16.50;99.90;;;;;;5101699;28;20416;-85
2021/07/30 00:23:56;;;;;;;5.33;4.83;;;16.50;99.90;;;;;;5101609;28;20397;-85
2021/07/30 00:26:22;;;;;;;5.47;4.57;;;16.40;99.90;;;;;;5101422;28;20151;-84
2021/07/30 00:28:47;;;;;;;6.40;4.83;;;16.20;99.90;;;;;;5101015;28;20486;-85
2021/07/30 00:31:13;;;;;;;6.67;5.20;;;16.20;99.90;;;;;;5101476;28;20249;-85
2021/07/30 00:33:38;;;;;;;5.35;4.85;;;16.00;99.90;;;;;;5083124;28;20464;-85
2021/07/30 00:36:04;;;;;;;8.77;5.83;;;15.90;99.90;;;;;;5101528;28;20151;-85
2021/07/30 00:38:29;;;;;;;5.07;4.57;;;16.10;99.90;;;;;;5101376;28;20155;-85
2021/07/30 00:40:55;;;;;;;6.27;5.70;;;16.00;99.90;;;;;;5101086;28;20159;-85
2021/07/30 00:43:20;;;;;;;5.50;4.70;;;16.10;99.90;;;;;;5101598;28;20212;-85
2021/07/30 00:45:46;;;;;;;6.30;5.37;;;16.10;99.90;;;;;;5101236;28;20163;-85
2021/07/30 00:48:13;;;;;;;8.60;6.53;;;16.20;99.90;;;;;;5101563;28;20169;-85
2021/07/30 00:50:41;;;;;;;5.50;5.00;;;16.50;99.90;;;;;;5082683;28;20167;-84
2021/07/30 00:53:07;;;;;;;6.90;6.20;;;16.40;99.90;;;;;;5101257;28;20958;-85
2021/07/30 00:55:33;;;;;;;7.50;5.80;;;16.40;99.90;;;;;;5100469;28;20397;-85
2021/07/30 00:57:58;;;;;;;5.97;5.37;;;16.20;99.90;;;;;;5100441;28;20163;-84
2021/07/30 01:00:25;;;;;;;6.70;6.00;;;16.10;99.90;;;;;;5100547;28;20383;-85
2021/07/30 01:02:51;;;;;;;8.60;5.47;;;16.00;99.90;;;;;;5101020;28;20159;-85
2021/07/30 01:05:17;;;;;;;7.53;5.43;;;16.00;99.90;;;;;;5082913;28;20393;-85
2021/07/30 01:07:43;;;;;;;7.50;5.33;;;16.00;99.90;;;;;;5100769;28;20648;-85
2021/07/30 01:10:09;;;;;;;5.83;5.30;;;16.00;99.90;;;;;;5100931;28;20480;-85
2021/07/30 01:12:35;;;;;;;6.13;5.30;;;16.10;99.90;;;;;;5100852;28;20194;-84
2021/07/30 01:15:00;;;;;;;7.30;5.57;;;15.50;99.90;;;;;;5100974;28;20385;-85
2021/07/30 01:17:26;;;;;;;6.20;5.67;;;15.40;99.90;;;;;;5101176;28;20169;-85
2021/07/30 01:19:52;;;;;;;5.33;4.83;;;15.40;99.90;;;;;;5100819;28;20673;-84
2021/07/30 01:22:23;;;;;;;5.93;5.43;;;15.40;99.90;;;;;;5100839;28;20243;-84
2021/07/30 01:24:49;;;;;;;6.83;5.63;;;15.30;99.90;;;;;;5082814;28;20385;-85
2021/07/30 01:27:15;;;;;;;13.40;4.90;;;15.30;99.90;;;;;;5100752;28;20385;-84
2021/07/30 01:29:41;;;;;;;9.63;5.90;;;15.30;99.90;;;;;;5110619;28;20396;-84
2021/07/30 01:32:07;;;;;;;6.40;4.60;;;15.20;99.90;;;;;;5092155;28;20202;-85
2021/07/30 01:34:32;;;;;;;6.47;5.90;;;15.10;99.90;;;;;;5072730;28;20528;-85
2021/07/30 01:36:58;;;;;;;7.57;5.80;;;15.20;99.90;;;;;;5082372;28;20404;-85
2021/07/30 01:39:24;;;;;;;5.60;5.10;;;15.10;99.90;;;;;;5082175;28;20170;-85
2021/07/30 01:41:51;;;;;;;8.10;5.37;;;15.10;99.90;;;;;;5100048;28;20182;-85
2021/07/30 01:44:16;;;;;;;6.65;5.70;;;15.20;99.90;;;;;;5099806;28;20483;-85
2021/07/30 01:46:42;;;;;;;6.90;6.00;;;15.30;99.90;;;;;;5100047;28;20332;-85
2021/07/30 01:49:08;;;;;;;6.37;5.73;;;15.40;99.90;;;;;;5100087;28;20166;-85
2021/07/30 01:51:33;;;;;;;4.40;4.10;;;15.20;99.90;;;;;;5099941;28;20190;-85
2021/07/30 01:53:59;;;;;;;6.27;5.63;;;15.30;99.90;;;;;;5099741;28;20166;-85
2021/07/30 01:56:24;;;;;;;5.27;4.73;;;15.40;99.90;;;;;;5099607;28;20151;-84
2021/07/30 01:58:49;;;;;;;8.57;5.60;;;15.40;99.90;;;;;;5100400;28;20591;-85
2021/07/30 02:01:15;;;;;;;7.70;5.57;;;15.70;99.90;;;;;;5100808;28;20177;-85
2021/07/30 02:03:40;;;;;;;8.00;5.90;;;15.80;99.90;;;;;;5083069;28;20167;-84
2021/07/30 02:06:07;;;;;;;6.73;6.13;;;15.50;99.90;;;;;;5069697;28;20159;-84
2021/07/30 02:08:33;;;;;;;5.43;4.93;;;15.30;99.90;;;;;;5096090;28;20194;-85
2021/07/30 02:11:00;;;;;;;7.30;5.30;;;15.20;99.90;;;;;;5119456;28;20469;-82
2021/07/30 02:16:02;;;;;;;7.13;6.33;;;15.10;99.90;;;;;;5103397;28;20388;-82
2021/07/30 02:18:28;;;;;;;12.93;5.87;;;15.30;99.90;;;;;;5119127;28;20408;-82
2021/07/30 02:20:53;;;;;;;6.10;4.90;;;15.30;99.90;;;;;;5084060;28;20257;-83
2021/07/30 02:23:19;;;;;;;10.27;5.50;;;15.30;99.90;;;;;;5100812;28;20217;-83
2021/07/30 02:25:44;;;;;;;7.77;6.00;;;15.30;99.90;;;;;;5119302;28;20178;-84
2021/07/30 02:28:10;;;;;;;6.77;6.17;;;15.20;99.90;;;;;;5119138;28;20161;-83
2021/07/30 02:30:37;;;;;;;6.60;5.53;;;15.30;99.90;;;;;;5119168;28;20189;-82
2021/07/30 02:33:02;;;;;;;8.10;7.00;;;15.40;99.90;;;;;;5119127;28;20206;-82
2021/07/30 02:35:29;;;;;;;6.30;5.70;;;15.20;99.90;;;;;;5118371;28;20431;-83
2021/07/30 02:37:54;;;;;;;5.70;5.20;;;15.30;99.90;;;;;;5119003;28;20170;-82
2021/07/30 02:40:20;;;;;;;6.20;5.57;;;15.30;99.90;;;;;;5119026;28;20377;-82
2021/07/30 02:42:47;;;;;;;6.60;5.60;;;15.30;99.90;;;;;;5118841;28;20154;-83
2021/07/30 02:45:12;;;;;;;6.13;5.10;;;15.30;99.90;;;;;;5118711;28;20159;-83
2021/07/30 02:47:38;;;;;;;6.07;5.33;;;15.20;99.90;;;;;;5118979;28;20494;-82
2021/07/30 02:50:04;;;;;;;5.90;5.20;;;15.10;99.90;;;;;;5101533;28;20171;-82
2021/07/30 02:52:30;;;;;;;6.50;5.90;;;15.00;99.90;;;;;;5118563;28;20194;-84
2021/07/30 02:54:56;;;;;;;9.13;6.37;;;15.00;99.90;;;;;;5118255;28;20418;-85
2021/07/30 02:57:21;;;;;;;8.20;6.37;;;15.00;99.90;;;;;;5087075;28;20423;-85
2021/07/30 02:59:46;;;;;;;7.63;6.70;;;15.10;99.90;;;;;;5100407;28;20162;-85
2021/07/30 03:02:12;;;;;;;6.53;5.93;;;14.90;99.90;;;;;;5101450;28;20204;-85
2021/07/30 03:04:38;;;;;;;6.83;5.87;;;15.00;99.90;;;;;;5082322;28;20167;-85
2021/07/30 03:07:04;;;;;;;8.97;6.10;;;15.20;99.90;;;;;;5082263;28;20433;-85
2021/07/30 03:09:30;;;;;;;7.10;6.10;;;15.20;99.90;;;;;;5100035;28;20577;-84
2021/07/30 03:11:55;;;;;;;10.53;6.30;;;15.00;99.90;;;;;;5102730;28;20201;-84
2021/07/30 03:14:21;;;;;;;7.30;6.20;;;15.30;99.90;;;;;;5085679;28;20198;-84
2021/07/30 03:16:46;;;;;;;9.00;6.63;;;15.40;99.90;;;;;;5099542;28;20163;-84
2021/07/30 03:19:12;;;;;;;8.13;5.37;;;15.50;99.90;;;;;;5099321;28;20242;-84
2021/07/30 03:21:39;;;;;;;11.60;6.07;;;15.70;99.90;;;;;;5099691;28;20182;-84
2021/07/30 03:24:05;;;;;;;7.67;6.57;;;15.40;99.90;;;;;;5099524;28;20194;-85
2021/07/30 03:26:32;;;;;;;6.60;6.00;;;15.50;99.90;;;;;;5098832;28;20408;-85
2021/07/30 03:28:57;;;;;;;10.43;5.90;;;15.30;99.90;;;;;;5099825;28;20171;-85
2021/07/30 03:31:23;;;;;;;5.67;5.17;;;15.20;99.90;;;;;;5100547;28;20440;-85
2021/07/30 03:33:50;;;;;;;8.83;6.30;;;15.10;99.90;;;;;;5064300;28;20200;-85
2021/07/30 03:36:15;;;;;;;9.90;6.87;;;15.00;99.90;;;;;;5099748;28;20234;-85
2021/07/30 03:38:41;;;;;;;9.03;6.10;;;15.10;99.90;;;;;;5100385;28;20393;-85
2021/07/30 03:41:06;;;;;;;10.20;6.80;;;14.90;99.90;;;;;;5100059;28;20184;-85
2021/07/30 03:43:32;;;;;;;10.87;7.13;;;14.90;99.90;;;;;;5101267;28;20159;-85
2021/07/30 03:45:58;;;;;;;6.80;5.90;;;14.80;99.90;;;;;;5101126;28;20159;-85
2021/07/30 03:48:23;;;;;;;7.80;7.00;;;14.90;99.90;;;;;;5104581;28;20246;-85
2021/07/30 03:50:49;;;;;;;6.70;6.10;;;15.00;99.90;;;;;;5103895;28;20316;-85
2021/07/30 03:53:14;;;;;;;6.53;5.83;;;15.00;99.90;;;;;;5111236;28;20202;-85
2021/07/30 03:55:39;;;;;;;7.47;6.30;;;15.00;99.90;;;;;;5106436;28;20511;-84
2021/07/30 03:58:05;;;;;;;7.50;6.50;;;15.00;99.90;;;;;;5118628;28;20170;-84
2021/07/30 04:00:31;;;;;;;7.00;6.33;;;15.00;99.90;;;;;;5120173;28;20165;-84
2021/07/30 04:02:56;;;;;;;9.47;7.03;;;14.90;99.90;;;;;;5120623;28;20177;-83
2021/07/30 04:05:21;;;;;;;7.70;6.60;;;15.00;99.90;;;;;;5119965;28;20165;-82
2021/07/30 04:07:47;;;;;;;10.07;6.40;;;15.20;99.90;;;;;;5120691;28;20170;-83
2021/07/30 04:10:12;;;;;;;11.70;8.27;;;15.10;99.90;;;;;;5119693;28;20169;-82
2021/07/30 04:12:38;;;;;;;9.67;7.60;;;14.80;99.90;;;;;;5119648;28;20233;-82
2021/07/30 04:15:04;;;;;;;10.83;6.90;;;15.00;99.90;;;;;;5120560;28;20196;-83
2021/07/30 04:17:30;;;;;;;6.23;5.70;;;15.00;99.90;;;;;;5117321;28;20166;-83
2021/07/30 04:19:55;;;;;;;10.93;6.83;;;15.10;99.90;;;;;;5103147;28;20444;-84
2021/07/30 04:22:20;;;;;;;17.20;6.83;;;14.90;99.90;;;;;;5102712;28;20185;-84
2021/07/30 04:24:46;;;;;;;8.47;6.20;;;15.00;99.90;;;;;;5103051;28;20262;-84
2021/07/30 04:27:11;;;;;;;6.70;5.53;;;15.00;99.90;;;;;;5102581;28;20163;-85
2021/07/30 04:29:38;;;;;;;7.73;5.83;;;15.20;99.90;;;;;;5114945;28;20171;-84
2021/07/30 04:32:06;;;;;;;7.93;7.13;;;15.30;99.90;;;;;;5103014;28;20349;-84
2021/07/30 04:34:31;;;;;;;8.53;6.77;;;15.40;99.90;;;;;;5115788;28;20471;-82
2021/07/30 04:36:57;;;;;;;7.07;5.87;;;15.30;99.90;;;;;;5120670;28;20461;-82
2021/07/30 04:39:22;;;;;;;10.30;6.93;;;15.50;99.90;;;;;;5120968;28;20170;-83
2021/07/30 04:41:48;;;;;;;6.23;5.63;;;15.40;99.90;;;;;;5118329;28;20170;-86
2021/07/30 04:44:13;;;;;;;6.03;5.47;;;15.50;99.90;;;;;;5085836;28;20170;-85
2021/07/30 04:46:38;;;;;;;6.53;5.93;;;15.50;99.90;;;;;;5102066;28;20247;-85
2021/07/30 04:49:04;;;;;;;8.40;6.27;;;15.50;99.90;;;;;;5083033;28;20163;-85
2021/07/30 04:51:29;;;;;;;12.30;5.70;;;15.30;99.90;;;;;;5100764;28;20187;-85
2021/07/30 04:53:55;;;;;;;8.30;5.40;;;15.40;99.90;;;;;;5082361;28;20155;-85
2021/07/30 04:56:21;;;;;;;6.90;6.20;;;15.40;99.90;;;;;;5100806;28;20158;-85
2021/07/30 04:58:47;;;;;;;6.30;5.70;;;15.30;99.90;;;;;;5100030;28;20231;-84
2021/07/30 05:01:13;;;;;;;7.53;6.67;;;15.30;99.90;;;;;;5082462;28;20182;-85
2021/07/30 05:03:42;;;;;;;13.40;6.77;;;15.40;99.90;;;;;;5082564;28;20385;-85
2021/07/30 05:06:12;;;;;;;10.83;7.50;;;15.40;99.90;;;;;;5100464;28;20162;-85
2021/07/30 05:08:38;;;;;;;12.13;6.43;;;15.60;99.90;;;;;;5100063;28;20425;-85
2021/07/30 05:11:03;;;;;;;9.90;6.90;;;15.60;99.90;;;;;;5082662;28;20385;-85
2021/07/30 05:13:29;;;;;;;6.80;5.70;;;15.70;99.90;;;;;;5099859;28;20203;-85
2021/07/30 05:15:55;;;;;;;7.20;6.00;;;15.80;99.90;;;;;;5082029;28;20167;-85
2021/07/30 05:18:21;;;;;;;12.37;6.33;;;15.90;99.90;;;;;;5100462;28;20155;-84
2021/07/30 05:20:46;;;;;;;9.23;8.30;;;16.10;99.90;;;;;;5078247;28;20989;-84
2021/07/30 05:23:12;;;;;;;7.10;6.40;;;16.40;99.90;;;;;;5062160;28;20222;-85
2021/07/30 05:25:38;;;;;;;8.20;7.40;;;16.40;99.90;;;;;;5059738;28;20198;-84
2021/07/30 05:28:04;;;;;;;7.60;6.90;;;16.50;99.90;;;;;;5078800;28;20175;-85
2021/07/30 05:30:29;;;;;;;9.23;6.33;;;16.50;99.90;;;;;;5078914;28;20639;-84
2021/07/30 05:33:13;;;;;;;7.27;5.63;;;16.50;99.90;;;;;;5079529;28;20453;-84
2021/07/30 05:35:38;;;;;;;5.97;5.40;;;16.30;99.90;;;;;;4997407;28;20670;-85
2021/07/30 05:38:04;;;;;;;7.33;6.63;;;16.40;99.90;;;;;;4997686;28;20556;-85
2021/07/30 05:40:30;;;;;;;7.20;6.20;;;16.60;99.90;;;;;;4997297;28;20677;-84
2021/07/30 05:42:56;;;;;;;7.10;6.43;;;16.80;99.90;;;;;;4997816;28;20431;-84
2021/07/30 05:45:22;;;;;;;8.83;6.73;;;16.80;99.90;;;;;;4997883;28;20217;-85
2021/07/30 05:47:48;;;;;;;6.37;5.70;;;16.80;99.90;;;;;;4965020;28;20441;-85
2021/07/30 05:50:15;;;;;;;8.27;6.30;;;17.10;99.90;;;;;;4997069;28;20193;-86
2021/07/30 05:52:41;;;;;;;10.40;6.90;;;17.10;99.90;;;;;;4997004;28;20481;-85
2021/07/30 05:55:07;;;;;;;11.03;8.07;;;16.90;99.90;;;;;;4981386;28;20418;-85
2021/07/30 05:57:33;;;;;;;12.40;7.23;;;17.00;99.90;;;;;;4998973;28;20166;-85
2021/07/30 06:00:01;;;;;;;7.17;6.27;;;17.00;99.90;;;;;;4997387;28;20972;-84
2021/07/30 06:02:26;;;;;;;9.17;5.80;;;17.20;99.90;;;;;;4974877;28;20888;-85
2021/07/30 06:04:52;;;;;;;7.30;5.87;;;17.10;99.90;;;;;;4999323;28;20483;-85
2021/07/30 06:07:17;;;;;;;6.70;5.37;;;17.30;99.90;;;;;;5067890;28;20187;-85
2021/07/30 06:09:43;;;;;;;10.37;6.27;;;17.30;99.90;;;;;;5089119;28;20290;-84
2021/07/30 06:12:08;;;;;;;6.80;6.27;;;17.40;99.90;;;;;;5080723;28;20195;-85
2021/07/30 06:14:34;;;;;;;9.07;6.60;;;17.60;99.90;;;;;;5078922;28;20612;-85
2021/07/30 06:16:59;;;;;;;6.30;5.80;;;17.60;99.90;;;;;;5077770;28;20578;-85
2021/07/30 06:19:25;;;;;;;9.17;6.93;;;17.90;99.90;;;;;;5083048;28;20222;-85
2021/07/30 06:21:50;;;;;;;8.53;6.20;;;17.80;99.90;;;;;;5094030;28;20187;-85
2021/07/30 06:24:16;;;;;;;6.50;5.90;;;17.80;99.90;;;;;;5098109;28;20178;-84
2021/07/30 06:26:43;;;;;;;8.90;6.57;;;18.10;99.90;;;;;;5099725;28;20179;-86
2021/07/30 06:29:08;;;;;;;15.43;6.30;;;18.10;99.90;;;;;;5099018;28;20182;-85
2021/07/30 06:31:34;;;;;;;8.20;7.23;;;18.30;99.90;;;;;;5098523;28;20810;-85
2021/07/30 06:33:59;;;;;;;9.17;5.90;;;18.30;99.90;;;;;;5063535;28;20684;-85
2021/07/30 06:36:25;;;;;;;7.07;5.50;;;18.40;99.90;;;;;;5098108;28;20162;-84
2021/07/30 06:38:50;;;;;;;6.23;5.10;;;18.30;99.90;;;;;;5098734;28;20159;-85
2021/07/30 06:41:19;;;;;;;7.00;5.30;;;18.40;99.90;;;;;;5098767;28;20216;-84
2021/07/30 06:43:46;;;;;;;5.37;4.97;;;18.50;99.90;;;;;;5084786;28;20184;-85
2021/07/30 06:46:12;;;;;;;6.57;5.37;;;18.60;99.90;;;;;;5098364;28;20513;-85
2021/07/30 06:48:37;;;;;;;15.03;5.83;;;18.40;99.90;;;;;;5047596;28;20418;-84
2021/07/30 06:51:03;;;;;;;5.13;4.70;;;18.60;99.90;;;;;;5096453;28;20257;-84
2021/07/30 06:53:28;;;;;;;5.80;5.20;;;18.90;99.90;;;;;;5098715;28;20221;-85
2021/07/30 06:55:54;;;;;;;6.50;5.90;;;19.00;99.90;;;;;;5064438;28;20174;-84
2021/07/30 06:58:19;;;;;;;6.47;5.13;;;19.00;99.90;;;;;;5081346;28;20151;-84
2021/07/30 07:00:45;;;;;;;6.30;5.40;;;19.20;99.90;;;;;;5104311;28;20171;-85
2021/07/30 07:03:10;;;;;;;5.03;4.53;;;19.00;99.90;;;;;;5102737;28;20201;-85
2021/07/30 07:05:36;;;;;;;5.67;5.17;;;19.00;99.90;;;;;;5071568;28;20228;-85
2021/07/30 07:08:02;;;;;;;5.80;5.20;;;19.10;99.90;;;;;;5091023;28;20205;-85
2021/07/30 07:10:27;;;;;;;4.93;4.53;;;19.10;99.90;;;;;;5081030;28;20171;-85
2021/07/30 07:12:53;;;;;;;6.37;4.60;;;19.10;99.90;;;;;;5098863;28;20191;-84
2021/07/30 07:15:18;;;;;;;5.70;5.20;;;19.20;99.90;;;;;;5101120;28;20310;-84
2021/07/30 07:17:44;;;;;;;5.37;4.33;;;19.40;99.90;;;;;;5102366;28;20611;-84
2021/07/30 07:20:10;;;;;;;6.67;5.77;;;19.30;99.90;;;;;;5078925;28;20286;-84
2021/07/30 07:22:35;;;;;;;6.67;5.37;;;19.40;99.90;;;;;;5098794;28;20201;-85
2021/07/30 07:25:01;;;;;;;10.47;6.37;;;19.60;99.90;;;;;;5086595;28;20179;-84
2021/07/30 07:27:26;;;;;;;6.47;4.70;;;19.70;99.90;;;;;;5105464;28;20185;-85
2021/07/30 07:29:52;;;;;;;7.30;5.60;;;19.60;99.90;;;;;;5108526;28;20274;-85
2021/07/30 07:32:17;;;;;;;9.97;4.43;;;19.70;99.90;;;;;;5105707;28;20190;-85
2021/07/30 07:34:43;;;;;;;4.97;4.50;;;19.80;99.90;;;;;;5084151;28;20155;-85
2021/07/30 07:37:08;;;;;;;4.40;4.00;;;19.80;99.90;;;;;;5103118;28;20220;-85
2021/07/30 07:39:34;;;;;;;5.30;4.83;;;20.00;99.90;;;;;;5103888;28;20234;-85
2021/07/30 07:42:00;;;;;;;8.67;5.40;;;20.30;99.90;;;;;;5087008;28;20245;-84
2021/07/30 07:44:26;;;;;;;5.60;4.80;;;20.40;99.90;;;;;;5070421;28;20190;-82
2021/07/30 07:46:52;;;;;;;4.80;4.33;;;20.40;99.90;;;;;;5101348;28;20464;-85
2021/07/30 07:49:18;;;;;;;4.47;4.07;;;20.30;99.90;;;;;;5081628;28;20195;-85
2021/07/30 07:51:43;;;;;;;6.50;4.77;;;20.70;99.90;;;;;;5092738;28;20990;-85
2021/07/30 07:54:09;;;;;;;7.10;4.20;;;20.70;99.90;;;;;;5104052;28;20159;-85
2021/07/30 07:56:35;;;;;;;5.37;4.43;;;20.90;99.90;;;;;;5102889;28;20190;-85
2021/07/30 07:59:01;;;;;;;4.20;3.80;;;21.20;99.90;;;;;;5102751;28;20170;-85
2021/07/30 08:01:27;;;;;;;4.83;4.33;;;21.10;99.90;;;;;;5084856;28;20169;-85
2021/07/30 08:03:52;;;;;;;3.53;3.17;;;21.20;99.90;;;;;;5101938;28;20456;-85
2021/07/30 08:06:19;;;;;;;6.03;4.60;;;21.30;99.90;;;;;;5102091;28;20643;-85
2021/07/30 08:08:45;;;;;;;4.90;4.10;;;21.20;99.90;;;;;;5084166;28;20199;-85
2021/07/30 08:11:11;;;;;;;5.90;3.90;;;20.90;99.90;;;;;;5101282;28;20420;-85
2021/07/30 08:13:37;;;;;;;5.60;3.30;;;21.00;99.90;;;;;;5066027;28;20442;-85
2021/07/30 08:16:03;;;;;;;6.50;4.40;;;21.20;99.90;;;;;;5101457;28;20167;-85
2021/07/30 08:18:29;;;;;;;4.00;3.60;;;21.40;99.90;;;;;;5102156;28;20421;-85
2021/07/30 08:20:54;;;;;;;5.00;4.10;;;21.30;99.90;;;;;;5101303;28;20536;-87
2021/07/30 08:23:20;;;;;;;4.73;4.33;;;21.50;99.90;;;;;;5102174;28;20163;-85
2021/07/30 08:25:46;;;;;;;5.50;3.73;;;21.70;99.90;;;;;;5101386;28;20230;-85
2021/07/30 08:28:11;;;;;;;4.93;4.00;;;21.70;99.90;;;;;;5101711;28;20170;-84
2021/07/30 08:30:37;;;;;;;5.17;4.67;;;21.40;99.90;;;;;;5102216;28;20167;-85
2021/07/30 08:33:02;;;;;;;5.30;4.37;;;21.60;99.90;;;;;;5088776;28;20203;-85
2021/07/30 08:35:28;;;;;;;7.87;4.70;;;21.60;99.90;;;;;;5101469;28;20178;-85
2021/07/30 08:37:54;;;;;;;6.50;4.43;;;21.80;99.90;;;;;;5083078;28;20162;-85
2021/07/30 08:40:20;;;;;;;4.60;3.87;;;21.80;99.90;;;;;;5101496;28;20511;-85
2021/07/30 08:42:48;;;;;;;4.50;4.10;;;21.90;99.90;;;;;;5104550;28;20180;-85
2021/07/30 08:45:13;;;;;;;3.97;3.60;;;22.20;99.90;;;;;;5091544;28;20179;-86
2021/07/30 08:47:51;;;;;;;5.00;4.07;;;22.10;99.90;;;;;;5077818;28;20417;-85
2021/07/30 08:50:17;;;;;;;3.60;3.30;;;22.30;99.90;;;;;;5095693;28;20189;-85
2021/07/30 08:52:47;;;;;;;3.93;3.53;;;22.30;99.90;;;;;;5095534;28;20452;-85
2021/07/30 08:55:13;;;;;;;3.97;3.57;;;22.30;99.90;;;;;;5056657;28;20191;-85
2021/07/30 08:57:42;;;;;;;5.83;4.83;;;22.30;99.90;;;;;;5063820;28;20431;-84
2021/07/30 09:00:11;;;;;;;3.73;3.43;;;22.50;99.90;;;;;;5066127;28;20251;-84
2021/07/30 09:02:37;;;;;;;4.93;3.67;;;22.50;99.90;;;;;;5054629;28;20514;-85
2021/07/30 09:05:29;;;;;;;6.90;4.13;;;22.60;99.90;;;;;;5066525;28;20433;-85
2021/07/30 09:07:57;;;;;;;4.53;3.47;;;22.80;99.90;;;;;;5058159;28;20272;-86
2021/07/30 09:10:35;;;;;;;6.33;3.93;;;23.00;99.90;;;;;;5057804;28;20438;-86
2021/07/30 09:13:20;;;;;;;4.03;3.73;;;22.90;99.90;;;;;;5044676;28;20617;-85
2021/07/30 09:16:06;;;;;;;5.13;3.93;;;22.50;99.90;;;;;;5061440;28;20596;-85
2021/07/30 09:18:47;;;;;;;4.23;3.83;;;22.80;99.90;;;;;;5005278;28;20432;-86
2021/07/30 09:21:28;;;;;;;8.00;3.67;;;22.90;99.90;;;;;;4987413;28;20529;-85
2021/07/30 09:24:00;;;;;;;4.30;3.50;;;23.00;99.90;;;;;;5012948;28;20420;-85
2021/07/30 09:26:29;;;;;;;4.20;3.80;;;23.00;99.90;;;;;;5041335;28;20484;-85
2021/07/30 09:29:23;;;;;;;5.00;4.37;;;23.00;99.90;;;;;;5051768;28;20825;-86
2021/07/30 09:31:52;;;;;;;4.30;3.90;;;23.10;99.90;;;;;;4964928;28;20533;-85
2021/07/30 09:34:24;;;;;;;4.30;3.73;;;22.90;99.90;;;;;;4960687;29;20418;-86
2021/07/30 09:36:57;;;;;;;3.87;3.30;;;23.20;99.90;;;;;;4970740;28;20437;-85
2021/07/30 09:39:27;;;;;;;3.60;3.30;;;23.40;99.90;;;;;;4937411;29;20528;-84
2021/07/30 09:41:55;;;;;;;4.43;3.83;;;23.50;99.90;;;;;;4921517;29;20539;-84
2021/07/30 09:44:21;;;;;;;3.60;3.30;;;23.50;99.90;;;;;;4933600;29;20443;-86
2021/07/30 09:47:05;;;;;;;4.40;3.50;;;23.20;99.90;;;;;;4935030;29;20437;-85
2021/07/30 09:49:51;;;;;;;4.20;3.60;;;23.60;99.90;;;;;;4929864;29;20653;-82
2021/07/30 09:52:19;;;;;;;5.17;3.47;;;23.60;99.90;;;;;;4940382;29;20443;-85
2021/07/30 09:54:52;;;;;;;4.23;3.83;;;23.90;99.90;;;;;;4942806;28;20499;-85
2021/07/30 09:57:20;;;;;;;5.10;4.30;;;24.30;99.90;;;;;;4950218;29;20426;-84
2021/07/30 09:59:50;;;;;;;5.30;4.80;;;24.10;99.90;;;;;;4952074;29;20439;-84
2021/07/30 10:02:22;;;;;;;4.50;4.10;;;23.80;99.90;;;;;;4940865;29;20463;-85
2021/07/30 10:04:54;;;;;;;8.07;4.17;;;24.10;99.90;;;;;;4944236;29;20470;-85
2021/07/30 10:07:23;;;;;;;3.80;3.50;;;24.60;99.90;;;;;;4945577;29;20436;-85
2021/07/30 10:10:00;;;;;;;4.10;3.80;;;24.60;99.90;;;;;;5012010;28;20572;-85
2021/07/30 10:12:55;;;;;;;5.60;4.40;;;24.30;99.90;;;;;;5041546;28;20445;-86
2021/07/30 10:15:24;;;;;;;4.10;3.40;;;24.50;99.90;;;;;;5013102;28;20437;-86
2021/07/30 10:17:56;;;;;;;6.20;3.90;;;24.30;99.90;;;;;;4999078;28;20428;-86
2021/07/30 10:20:23;;;;;;;4.77;3.73;;;24.50;99.90;;;;;;5000342;28;20468;-86
2021/07/30 10:23:23;;;;;;;5.30;4.00;;;24.50;99.90;;;;;;5017449;28;20478;-86
2021/07/30 10:25:58;;;;;;;7.40;4.67;;;24.10;99.90;;;;;;5018405;28;20507;-86
2021/07/30 10:28:28;;;;;;;3.40;3.10;;;24.30;99.90;;;;;;5021139;28;20470;-86
2021/07/30 10:31:45;;;;;;;5.63;4.30;;;24.30;99.90;;;;;;4988394;28;20436;-85
2021/07/30 10:34:40;;;;;;;6.70;4.60;;;24.60;99.90;;;;;;4945618;29;20408;-85
2021/07/30 10:37:33;;;;;;;4.13;3.80;;;25.00;99.90;;;;;;4932312;29;20447;-86
2021/07/30 10:40:16;;;;;;;3.77;3.47;;;25.10;99.90;;;;;;4941812;28;20425;-85
2021/07/30 10:43:04;;;;;;;7.33;4.37;;;25.10;99.90;;;;;;4999192;28;20910;-85
2021/07/30 10:45:31;;;;;;;8.00;4.30;;;25.10;99.90;;;;;;5001952;28;20427;-85
2021/07/30 10:48:35;;;;;;;4.40;3.70;;;25.10;99.90;;;;;;4999222;28;20866;-86
2021/07/30 10:51:04;;;;;;;3.90;3.60;;;24.90;99.90;;;;;;4996701;28;20417;-85
2021/07/30 10:53:58;;;;;;;4.57;3.67;;;25.30;99.90;;;;;;4992488;28;20556;-85
2021/07/30 10:56:42;;;;;;;4.50;4.10;;;25.50;99.90;;;;;;4989802;28;20421;-86
2021/07/30 10:59:08;;;;;;;4.47;4.07;;;25.90;99.90;;;;;;4978338;28;20513;-85
2021/07/30 11:01:59;;;;;;;3.60;3.20;;;26.00;99.90;;;;;;4978345;28;20402;-85
2021/07/30 11:04:27;;;;;;;4.17;3.77;;;25.90;99.90;;;;;;5021539;28;20214;-85
2021/07/30 11:06:59;;;;;;;3.83;3.53;;;26.10;99.90;;;;;;5062071;28;20528;-85
2021/07/30 11:09:36;;;;;;;4.53;4.13;;;25.50;99.90;;;;;;5080214;28;20441;-86
2021/07/30 11:12:03;;;;;;;5.10;4.60;;;25.80;99.90;;;;;;5086215;28;20586;-85
2021/07/30 11:14:32;;;;;;;11.23;4.03;;;26.30;99.90;;;;;;5081212;28;20408;-84
2021/07/30 11:17:00;;;;;;;4.53;4.13;;;26.40;99.90;;;;;;5063396;28;20418;-85
2021/07/30 11:19:30;;;;;;;4.13;3.73;;;26.70;99.90;;;;;;5057765;28;20485;-84
2021/07/30 11:22:04;;;;;;;5.70;4.20;;;27.20;99.90;;;;;;5045860;28;20397;-86
2021/07/30 11:24:30;;;;;;;3.90;3.60;;;27.20;99.90;;;;;;5077429;28;20533;-86
2021/07/30 11:26:55;;;;;;;5.13;4.30;;;26.30;99.90;;;;;;5072643;28;20446;-85
2021/07/30 11:29:23;;;;;;;3.77;3.43;;;26.20;99.90;;;;;;5060387;28;20615;-84
2021/07/30 11:31:52;;;;;;;6.43;4.23;;;26.50;99.90;;;;;;5069401;28;20263;-85
2021/07/30 11:34:19;;;;;;;4.67;4.27;;;26.90;99.90;;;;;;5041151;28;20397;-86
2021/07/30 11:36:49;;;;;;;3.77;3.37;;;26.70;99.90;;;;;;5043955;28;20689;-86
2021/07/30 11:39:15;;;;;;;4.97;3.60;;;27.40;99.90;;;;;;5060255;28;20477;-86
2021/07/30 11:41:51;;;;;;;4.93;4.53;;;27.70;99.90;;;;;;5042156;28;20558;-84
2021/07/30 11:44:21;;;;;;;4.77;4.00;;;27.60;99.90;;;;;;5058787;28;20390;-85
2021/07/30 11:46:58;;;;;;;5.80;5.30;;;28.20;99.90;;;;;;5059304;28;20465;-84
2021/07/30 11:49:31;;;;;;;4.47;4.10;;;28.10;99.90;;;;;;5058774;28;20397;-86
2021/07/30 11:51:57;;;;;;;7.73;4.97;;;28.60;99.90;;;;;;5023652;28;20547;-86
2021/07/30 11:54:24;;;;;;;3.93;3.63;;;28.60;99.90;;;;;;5041289;28;20489;-85
2021/07/30 11:56:50;;;;;;;4.50;3.73;;;28.60;99.90;;;;;;5041006;28;20247;-86
2021/07/30 11:59:16;;;;;;;4.10;3.70;;;29.10;98.70;;;;;;5024025;28;20421;-86
2021/07/30 12:01:41;;;;;;;3.97;3.75;;;29.00;98.90;;;;;;5040308;28;20269;-86
2021/07/30 12:04:15;;;;;;;6.00;4.88;;;29.40;97.50;;;;;;5041161;28;20305;-85
2021/07/30 12:06:51;;;;;;;4.68;4.22;;;28.90;98.30;;;;;;5060348;28;20186;-85
2021/07/30 12:09:17;;;;;;;4.15;3.85;;;28.50;96.80;;;;;;5044561;28;20247;-86
2021/07/30 12:11:49;;;;;;;3.95;3.65;;;28.30;97.00;;;;;;5063443;28;20160;-85
2021/07/30 12:14:15;;;;;;;4.68;4.20;;;29.40;96.50;;;;;;5064584;28;20163;-85
2021/07/30 12:16:42;;;;;;;3.58;3.28;;;29.20;95.50;;;;;;5064277;28;20174;-86
2021/07/30 12:19:07;;;;;;;5.47;4.40;;;30.50;93.90;;;;;;5030218;28;20159;-84
2021/07/30 12:21:34;;;;;;;4.22;3.83;;;31.00;91.90;;;;;;5083399;28;20222;-85
2021/07/30 12:24:07;;;;;;;4.38;3.88;;;30.00;91.20;;;;;;5085272;28;20182;-85
2021/07/30 12:26:36;;;;;;;4.97;4.53;;;30.20;91.10;;;;;;5085307;28;20265;-85
2021/07/30 12:29:04;;;;;;;4.78;3.97;;;29.50;91.60;;;;;;5086292;28;20163;-85
2021/07/30 12:31:31;;;;;;;6.13;4.30;;;30.50;90.60;;;;;;5034104;28;20183;-84
2021/07/30 12:34:14;;;;;;;4.40;4.00;;;29.50;90.50;;;;;;5084012;28;20169;-84
2021/07/30 12:36:40;;;;;;;4.65;4.28;;;29.50;91.10;;;;;;5082559;28;20148;-84
2021/07/30 12:39:07;;;;;;;4.95;4.40;;;30.10;90.10;;;;;;5083715;28;20266;-85
2021/07/30 12:41:34;;;;;;;4.28;3.88;;;30.20;90.20;;;;;;5065753;28;20155;-86
2021/07/30 12:44:16;;;;;;;7.25;3.92;;;29.20;87.50;;;;;;5065074;28;20252;-85
2021/07/30 12:46:48;;;;;;;4.72;4.32;;;29.50;91.00;;;;;;5088002;28;20178;-86
2021/07/30 12:49:26;;;;;;;4.95;3.88;;;29.40;86.70;;;;;;5068687;28;20159;-85
2021/07/30 12:51:54;;;;;;;4.10;3.80;;;30.80;84.60;;;;;;5030443;28;20274;-86
2021/07/30 12:54:33;;;;;;;4.75;4.38;;;31.60;81.20;;;;;;5030323;28;20263;-85